sensor_id;sensor_type;location;lat;lon;timestamp;temperature;humidity
67358;HTU21D;54240;51.096;5.878;2022-11-20T00:01:26;3.94;118.99
67358;HTU21D;54240;51.096;5.878;2022-11-20T00:03:54;3.93;118.99
67358;HTU21D;54240;51.096;5.878;2022-11-20T00:06:22;3.85;118.99
67358;HTU21D;54240;51.096;5.878;2022-11-20T00:08:49;3.80;118.99
67358;HTU21D;54240;51.096;5.878;2022-11-20T00:11:21;3.76;118.99
67358;HTU21D;54240;51.096;5.878;2022-11-20T00:13:50;3.75;118.99
67358;HTU21D;54240;51.096;5.878;2022-11-20T00:16:19;3.72;118.99
67358;HTU21D;54240;51.096;5.878;2022-11-20T00:18:45;3.70;118.99
67358;HTU21D;54240;51.096;5.878;2022-11-20T00:21:14;3.74;118.99
67358;HTU21D;54240;51.096;5.878;2022-11-20T00:23:41;3.75;118.99
67358;HTU21D;54240;51.096;5.878;2022-11-20T00:26:10;3.79;118.99
67358;HTU21D;54240;51.096;5.878;2022-11-20T00:28:37;3.80;118.99
67358;HTU21D;54240;51.096;5.878;2022-11-20T00:31:09;3.84;118.99
67358;HTU21D;54240;51.096;5.878;2022-11-20T00:33:35;3.89;118.99
67358;HTU21D;54240;51.096;5.878;2022-11-20T00:36:03;3.94;118.99
67358;HTU21D;54240;51.096;5.878;2022-11-20T00:38:30;3.99;118.99
67358;HTU21D;54240;51.096;5.878;2022-11-20T00:40:58;4.04;118.99
67358;HTU21D;54240;51.096;5.878;2022-11-20T00:43:25;4.06;118.99
67358;HTU21D;54240;51.096;5.878;2022-11-20T00:45:56;4.05;118.99
67358;HTU21D;54240;51.096;5.878;2022-11-20T00:48:22;4.12;118.99
67358;HTU21D;54240;51.096;5.878;2022-11-20T00:50:48;4.17;118.99
67358;HTU21D;54240;51.096;5.878;2022-11-20T00:53:14;4.20;118.99
67358;HTU21D;54240;51.096;5.878;2022-11-20T00:55:40;4.26;118.99
67358;HTU21D;54240;51.096;5.878;2022-11-20T00:58:06;4.29;118.99
67358;HTU21D;54240;51.096;5.878;2022-11-20T01:00:32;4.31;118.99
67358;HTU21D;54240;51.096;5.878;2022-11-20T01:02:58;4.34;118.99
67358;HTU21D;54240;51.096;5.878;2022-11-20T01:05:24;4.35;118.99
67358;HTU21D;54240;51.096;5.878;2022-11-20T01:07:50;4.34;118.99
67358;HTU21D;54240;51.096;5.878;2022-11-20T01:10:15;4.31;118.99
67358;HTU21D;54240;51.096;5.878;2022-11-20T01:12:41;4.30;118.99
67358;HTU21D;54240;51.096;5.878;2022-11-20T01:15:07;4.22;118.99
67358;HTU21D;54240;51.096;5.878;2022-11-20T01:17:33;4.20;118.99
67358;HTU21D;54240;51.096;5.878;2022-11-20T01:20:00;4.19;118.99
67358;HTU21D;54240;51.096;5.878;2022-11-20T01:22:26;4.19;118.99
67358;HTU21D;54240;51.096;5.878;2022-11-20T01:24:52;4.20;118.99
67358;HTU21D;54240;51.096;5.878;2022-11-20T01:27:18;4.20;118.99
67358;HTU21D;54240;51.096;5.878;2022-11-20T01:29:44;4.18;118.99
67358;HTU21D;54240;51.096;5.878;2022-11-20T01:32:09;4.16;118.99
67358;HTU21D;54240;51.096;5.878;2022-11-20T01:34:35;4.18;118.99
67358;HTU21D;54240;51.096;5.878;2022-11-20T01:37:02;4.16;118.99
67358;HTU21D;54240;51.096;5.878;2022-11-20T01:39:27;4.14;118.99
67358;HTU21D;54240;51.096;5.878;2022-11-20T01:41:55;4.04;118.99
67358;HTU21D;54240;51.096;5.878;2022-11-20T01:44:55;3.86;118.99
67358;HTU21D;54240;51.096;5.878;2022-11-20T01:52:45;3.59;118.99
67358;HTU21D;54240;51.096;5.878;2022-11-20T01:55:21;3.50;118.99
67358;HTU21D;54240;51.096;5.878;2022-11-20T01:57:48;3.41;118.99
67358;HTU21D;54240;51.096;5.878;2022-11-20T02:00:17;3.29;118.99
67358;HTU21D;54240;51.096;5.878;2022-11-20T02:02:50;3.21;118.99
67358;HTU21D;54240;51.096;5.878;2022-11-20T02:05:45;3.16;118.99
67358;HTU21D;54240;51.096;5.878;2022-11-20T02:08:13;3.11;118.99
67358;HTU21D;54240;51.096;5.878;2022-11-20T02:10:38;3.10;118.99
67358;HTU21D;54240;51.096;5.878;2022-11-20T02:13:05;3.11;118.99
67358;HTU21D;54240;51.096;5.878;2022-11-20T02:15:50;3.11;118.99
67358;HTU21D;54240;51.096;5.878;2022-11-20T02:18:19;3.15;118.99
67358;HTU21D;54240;51.096;5.878;2022-11-20T02:20:48;3.18;118.99
67358;HTU21D;54240;51.096;5.878;2022-11-20T02:25:58;3.24;118.99
67358;HTU21D;54240;51.096;5.878;2022-11-20T02:28:27;3.26;118.99
67358;HTU21D;54240;51.096;5.878;2022-11-20T02:30:53;3.35;118.99
67358;HTU21D;54240;51.096;5.878;2022-11-20T02:33:18;3.48;118.99
67358;HTU21D;54240;51.096;5.878;2022-11-20T02:35:46;3.52;118.99
67358;HTU21D;54240;51.096;5.878;2022-11-20T02:38:13;3.55;118.99
67358;HTU21D;54240;51.096;5.878;2022-11-20T02:40:40;3.57;118.99
67358;HTU21D;54240;51.096;5.878;2022-11-20T02:43:06;3.59;118.99
67358;HTU21D;54240;51.096;5.878;2022-11-20T02:45:32;3.60;118.99
67358;HTU21D;54240;51.096;5.878;2022-11-20T02:47:57;3.53;118.99
67358;HTU21D;54240;51.096;5.878;2022-11-20T02:50:23;3.48;118.99
67358;HTU21D;54240;51.096;5.878;2022-11-20T02:52:49;3.48;118.99
67358;HTU21D;54240;51.096;5.878;2022-11-20T02:55:15;3.49;118.99
67358;HTU21D;54240;51.096;5.878;2022-11-20T02:57:41;3.48;118.99
67358;HTU21D;54240;51.096;5.878;2022-11-20T03:00:07;3.49;118.99
67358;HTU21D;54240;51.096;5.878;2022-11-20T03:02:33;3.46;118.99
67358;HTU21D;54240;51.096;5.878;2022-11-20T03:04:59;3.44;118.99
67358;HTU21D;54240;51.096;5.878;2022-11-20T03:07:25;3.40;118.99
67358;HTU21D;54240;51.096;5.878;2022-11-20T03:09:51;3.33;118.99
67358;HTU21D;54240;51.096;5.878;2022-11-20T03:12:17;3.28;118.99
67358;HTU21D;54240;51.096;5.878;2022-11-20T03:14:42;3.20;118.99
67358;HTU21D;54240;51.096;5.878;2022-11-20T03:17:08;3.18;118.99
67358;HTU21D;54240;51.096;5.878;2022-11-20T03:19:34;3.15;118.99
67358;HTU21D;54240;51.096;5.878;2022-11-20T03:22:00;3.14;118.99
67358;HTU21D;54240;51.096;5.878;2022-11-20T03:24:29;3.14;118.99
67358;HTU21D;54240;51.096;5.878;2022-11-20T03:26:55;3.16;118.99
67358;HTU21D;54240;51.096;5.878;2022-11-20T03:29:21;3.15;118.99
67358;HTU21D;54240;51.096;5.878;2022-11-20T03:31:47;3.15;118.99
67358;HTU21D;54240;51.096;5.878;2022-11-20T03:34:13;3.19;118.99
67358;HTU21D;54240;51.096;5.878;2022-11-20T03:36:40;3.19;118.99
67358;HTU21D;54240;51.096;5.878;2022-11-20T03:39:06;3.18;118.99
67358;HTU21D;54240;51.096;5.878;2022-11-20T03:41:37;3.20;118.99
67358;HTU21D;54240;51.096;5.878;2022-11-20T03:44:05;3.20;118.99
67358;HTU21D;54240;51.096;5.878;2022-11-20T03:46:31;3.17;118.99
67358;HTU21D;54240;51.096;5.878;2022-11-20T03:48:57;3.13;118.99
67358;HTU21D;54240;51.096;5.878;2022-11-20T03:51:25;3.09;118.99
67358;HTU21D;54240;51.096;5.878;2022-11-20T03:53:54;3.05;118.99
67358;HTU21D;54240;51.096;5.878;2022-11-20T03:56:24;3.03;118.99
67358;HTU21D;54240;51.096;5.878;2022-11-20T03:58:50;3.01;118.99
67358;HTU21D;54240;51.096;5.878;2022-11-20T04:01:21;3.06;118.99
67358;HTU21D;54240;51.096;5.878;2022-11-20T04:03:48;3.11;118.99
67358;HTU21D;54240;51.096;5.878;2022-11-20T04:06:23;3.14;118.99
67358;HTU21D;54240;51.096;5.878;2022-11-20T04:08:49;3.18;118.99
67358;HTU21D;54240;51.096;5.878;2022-11-20T04:11:19;3.18;118.99
67358;HTU21D;54240;51.096;5.878;2022-11-20T04:13:49;3.18;118.99
67358;HTU21D;54240;51.096;5.878;2022-11-20T04:16:16;3.16;118.99
67358;HTU21D;54240;51.096;5.878;2022-11-20T04:18:42;3.15;118.99
67358;HTU21D;54240;51.096;5.878;2022-11-20T04:21:09;3.14;118.99
67358;HTU21D;54240;51.096;5.878;2022-11-20T04:23:35;3.18;118.99
67358;HTU21D;54240;51.096;5.878;2022-11-20T04:26:07;3.24;118.99
67358;HTU21D;54240;51.096;5.878;2022-11-20T04:28:33;3.27;118.99
67358;HTU21D;54240;51.096;5.878;2022-11-20T04:31:09;3.32;118.99
67358;HTU21D;54240;51.096;5.878;2022-11-20T04:33:36;3.38;118.99
67358;HTU21D;54240;51.096;5.878;2022-11-20T04:36:09;3.35;118.99
67358;HTU21D;54240;51.096;5.878;2022-11-20T04:38:36;3.33;118.99
67358;HTU21D;54240;51.096;5.878;2022-11-20T04:41:04;3.30;118.99
67358;HTU21D;54240;51.096;5.878;2022-11-20T04:43:32;3.19;118.99
67358;HTU21D;54240;51.096;5.878;2022-11-20T04:45:59;3.11;118.99
67358;HTU21D;54240;51.096;5.878;2022-11-20T04:48:27;3.12;118.99
67358;HTU21D;54240;51.096;5.878;2022-11-20T04:50:54;3.10;118.99
67358;HTU21D;54240;51.096;5.878;2022-11-20T04:53:21;3.11;118.99
67358;HTU21D;54240;51.096;5.878;2022-11-20T04:55:47;3.17;118.99
67358;HTU21D;54240;51.096;5.878;2022-11-20T04:58:13;3.18;118.99
67358;HTU21D;54240;51.096;5.878;2022-11-20T05:00:40;3.18;118.99
67358;HTU21D;54240;51.096;5.878;2022-11-20T05:03:05;3.15;118.99
67358;HTU21D;54240;51.096;5.878;2022-11-20T05:05:34;3.17;118.99
67358;HTU21D;54240;51.096;5.878;2022-11-20T05:08:00;3.17;118.99
67358;HTU21D;54240;51.096;5.878;2022-11-20T05:10:27;3.13;118.99
67358;HTU21D;54240;51.096;5.878;2022-11-20T05:12:53;3.19;118.99
67358;HTU21D;54240;51.096;5.878;2022-11-20T05:15:19;3.23;118.99
67358;HTU21D;54240;51.096;5.878;2022-11-20T05:17:49;3.26;118.99
67358;HTU21D;54240;51.096;5.878;2022-11-20T05:20:15;3.32;118.99
67358;HTU21D;54240;51.096;5.878;2022-11-20T05:22:41;3.35;118.99
67358;HTU21D;54240;51.096;5.878;2022-11-20T05:25:07;3.41;118.99
67358;HTU21D;54240;51.096;5.878;2022-11-20T05:27:33;3.46;118.99
67358;HTU21D;54240;51.096;5.878;2022-11-20T05:29:59;3.53;118.99
67358;HTU21D;54240;51.096;5.878;2022-11-20T05:32:25;3.61;118.99
67358;HTU21D;54240;51.096;5.878;2022-11-20T05:34:52;3.63;118.99
67358;HTU21D;54240;51.096;5.878;2022-11-20T05:37:18;3.63;118.99
67358;HTU21D;54240;51.096;5.878;2022-11-20T05:39:43;3.63;118.99
67358;HTU21D;54240;51.096;5.878;2022-11-20T05:42:09;3.61;118.99
67358;HTU21D;54240;51.096;5.878;2022-11-20T05:44:54;3.50;118.99
67358;HTU21D;54240;51.096;5.878;2022-11-20T05:47:19;3.48;118.99
67358;HTU21D;54240;51.096;5.878;2022-11-20T05:49:45;3.47;118.99
67358;HTU21D;54240;51.096;5.878;2022-11-20T05:52:11;3.46;118.99
67358;HTU21D;54240;51.096;5.878;2022-11-20T05:54:37;3.44;118.99
67358;HTU21D;54240;51.096;5.878;2022-11-20T05:57:03;3.41;118.99
67358;HTU21D;54240;51.096;5.878;2022-11-20T05:59:29;3.39;118.99
67358;HTU21D;54240;51.096;5.878;2022-11-20T06:01:54;3.41;118.99
67358;HTU21D;54240;51.096;5.878;2022-11-20T06:04:20;3.40;118.99
67358;HTU21D;54240;51.096;5.878;2022-11-20T06:06:46;3.40;118.99
67358;HTU21D;54240;51.096;5.878;2022-11-20T06:09:12;3.41;118.99
67358;HTU21D;54240;51.096;5.878;2022-11-20T06:11:37;3.40;118.99
67358;HTU21D;54240;51.096;5.878;2022-11-20T06:14:03;3.39;118.99
67358;HTU21D;54240;51.096;5.878;2022-11-20T06:16:29;3.39;118.99
67358;HTU21D;54240;51.096;5.878;2022-11-20T06:18:55;3.40;118.99
67358;HTU21D;54240;51.096;5.878;2022-11-20T06:21:22;3.40;118.99
67358;HTU21D;54240;51.096;5.878;2022-11-20T06:23:50;3.40;118.99
67358;HTU21D;54240;51.096;5.878;2022-11-20T06:26:19;3.43;118.99
67358;HTU21D;54240;51.096;5.878;2022-11-20T06:28:46;3.45;118.99
67358;HTU21D;54240;51.096;5.878;2022-11-20T06:31:14;3.44;118.99
67358;HTU21D;54240;51.096;5.878;2022-11-20T06:33:41;3.46;118.99
67358;HTU21D;54240;51.096;5.878;2022-11-20T06:36:08;3.50;118.99
67358;HTU21D;54240;51.096;5.878;2022-11-20T06:38:34;3.50;118.99
67358;HTU21D;54240;51.096;5.878;2022-11-20T06:41:00;3.52;118.99
67358;HTU21D;54240;51.096;5.878;2022-11-20T06:43:28;3.55;118.99
67358;HTU21D;54240;51.096;5.878;2022-11-20T06:45:56;3.58;118.99
67358;HTU21D;54240;51.096;5.878;2022-11-20T06:48:23;3.62;118.99
67358;HTU21D;54240;51.096;5.878;2022-11-20T06:50:49;3.67;118.99
67358;HTU21D;54240;51.096;5.878;2022-11-20T06:53:16;3.69;118.99
67358;HTU21D;54240;51.096;5.878;2022-11-20T06:55:45;3.73;118.99
67358;HTU21D;54240;51.096;5.878;2022-11-20T06:58:13;3.78;118.99
67358;HTU21D;54240;51.096;5.878;2022-11-20T07:00:39;3.84;118.99
67358;HTU21D;54240;51.096;5.878;2022-11-20T07:03:06;3.89;118.99
67358;HTU21D;54240;51.096;5.878;2022-11-20T07:05:33;3.93;118.99
67358;HTU21D;54240;51.096;5.878;2022-11-20T07:07:59;3.98;118.99
67358;HTU21D;54240;51.096;5.878;2022-11-20T07:10:25;4.02;118.99
67358;HTU21D;54240;51.096;5.878;2022-11-20T07:12:52;4.04;118.99
67358;HTU21D;54240;51.096;5.878;2022-11-20T07:15:20;4.08;118.99
67358;HTU21D;54240;51.096;5.878;2022-11-20T07:17:46;4.13;118.99
67358;HTU21D;54240;51.096;5.878;2022-11-20T07:20:13;4.16;118.99
67358;HTU21D;54240;51.096;5.878;2022-11-20T07:22:39;4.20;118.99
67358;HTU21D;54240;51.096;5.878;2022-11-20T07:25:06;4.24;118.99
67358;HTU21D;54240;51.096;5.878;2022-11-20T07:27:31;4.28;118.99
67358;HTU21D;54240;51.096;5.878;2022-11-20T07:29:57;4.32;118.99
67358;HTU21D;54240;51.096;5.878;2022-11-20T07:32:24;4.33;118.99
67358;HTU21D;54240;51.096;5.878;2022-11-20T07:34:49;4.34;118.99
67358;HTU21D;54240;51.096;5.878;2022-11-20T07:37:15;4.38;118.99
67358;HTU21D;54240;51.096;5.878;2022-11-20T07:39:42;4.44;118.99
67358;HTU21D;54240;51.096;5.878;2022-11-20T07:42:08;4.46;118.99
67358;HTU21D;54240;51.096;5.878;2022-11-20T07:44:36;4.45;118.99
67358;HTU21D;54240;51.096;5.878;2022-11-20T07:47:02;4.45;118.99
67358;HTU21D;54240;51.096;5.878;2022-11-20T07:49:28;4.44;118.99
67358;HTU21D;54240;51.096;5.878;2022-11-20T07:51:53;4.43;118.99
67358;HTU21D;54240;51.096;5.878;2022-11-20T07:54:20;4.46;118.99
67358;HTU21D;54240;51.096;5.878;2022-11-20T07:56:47;4.46;118.99
67358;HTU21D;54240;51.096;5.878;2022-11-20T07:59:14;4.53;118.99
67358;HTU21D;54240;51.096;5.878;2022-11-20T08:01:41;4.65;118.99
67358;HTU21D;54240;51.096;5.878;2022-11-20T08:04:07;4.74;118.99
67358;HTU21D;54240;51.096;5.878;2022-11-20T08:06:34;4.80;118.99
67358;HTU21D;54240;51.096;5.878;2022-11-20T08:08:59;4.82;118.99
67358;HTU21D;54240;51.096;5.878;2022-11-20T08:11:25;4.81;118.99
67358;HTU21D;54240;51.096;5.878;2022-11-20T08:14:10;4.76;118.99
67358;HTU21D;54240;51.096;5.878;2022-11-20T08:16:47;4.66;118.99
67358;HTU21D;54240;51.096;5.878;2022-11-20T08:19:15;4.62;118.99
67358;HTU21D;54240;51.096;5.878;2022-11-20T08:21:42;4.58;118.99
67358;HTU21D;54240;51.096;5.878;2022-11-20T08:24:08;4.51;118.99
67358;HTU21D;54240;51.096;5.878;2022-11-20T08:26:35;4.51;118.99
67358;HTU21D;54240;51.096;5.878;2022-11-20T08:29:03;4.54;118.99
67358;HTU21D;54240;51.096;5.878;2022-11-20T08:31:29;4.59;118.99
67358;HTU21D;54240;51.096;5.878;2022-11-20T08:33:55;4.61;118.99
67358;HTU21D;54240;51.096;5.878;2022-11-20T08:36:22;4.66;118.99
67358;HTU21D;54240;51.096;5.878;2022-11-20T08:38:50;4.65;118.99
67358;HTU21D;54240;51.096;5.878;2022-11-20T08:41:16;4.62;118.99
67358;HTU21D;54240;51.096;5.878;2022-11-20T08:43:57;4.57;118.99
67358;HTU21D;54240;51.096;5.878;2022-11-20T08:46:24;4.51;118.99
67358;HTU21D;54240;51.096;5.878;2022-11-20T08:48:51;4.56;118.99
67358;HTU21D;54240;51.096;5.878;2022-11-20T08:51:18;4.42;118.99
67358;HTU21D;54240;51.096;5.878;2022-11-20T08:53:44;4.51;118.99
67358;HTU21D;54240;51.096;5.878;2022-11-20T08:56:10;4.37;118.99
67358;HTU21D;54240;51.096;5.878;2022-11-20T08:58:37;4.34;118.99
67358;HTU21D;54240;51.096;5.878;2022-11-20T09:01:03;4.35;118.99
67358;HTU21D;54240;51.096;5.878;2022-11-20T09:03:29;4.42;118.99
67358;HTU21D;54240;51.096;5.878;2022-11-20T09:06:02;4.48;118.99
67358;HTU21D;54240;51.096;5.878;2022-11-20T09:08:29;4.54;118.99
67358;HTU21D;54240;51.096;5.878;2022-11-20T09:10:56;4.66;118.99
67358;HTU21D;54240;51.096;5.878;2022-11-20T09:13:24;4.74;118.99
67358;HTU21D;54240;51.096;5.878;2022-11-20T09:15:54;4.86;118.99
67358;HTU21D;54240;51.096;5.878;2022-11-20T09:18:20;4.96;118.99
67358;HTU21D;54240;51.096;5.878;2022-11-20T09:20:47;4.97;118.99
67358;HTU21D;54240;51.096;5.878;2022-11-20T09:23:13;5.01;118.99
67358;HTU21D;54240;51.096;5.878;2022-11-20T09:25:39;5.07;118.99
67358;HTU21D;54240;51.096;5.878;2022-11-20T09:28:04;5.12;118.99
67358;HTU21D;54240;51.096;5.878;2022-11-20T09:30:30;5.16;118.99
67358;HTU21D;54240;51.096;5.878;2022-11-20T09:32:56;5.26;118.99
67358;HTU21D;54240;51.096;5.878;2022-11-20T09:35:22;5.43;118.99
67358;HTU21D;54240;51.096;5.878;2022-11-20T09:37:48;5.61;118.99
67358;HTU21D;54240;51.096;5.878;2022-11-20T09:40:21;5.72;118.99
67358;HTU21D;54240;51.096;5.878;2022-11-20T09:56:02;5.91;118.99
67358;HTU21D;54240;51.096;5.878;2022-11-20T09:58:42;5.93;118.99
67358;HTU21D;54240;51.096;5.878;2022-11-20T10:01:15;5.96;118.99
67358;HTU21D;54240;51.096;5.878;2022-11-20T10:04:03;6.04;118.99
67358;HTU21D;54240;51.096;5.878;2022-11-20T10:06:37;6.13;118.99
67358;HTU21D;54240;51.096;5.878;2022-11-20T10:09:13;6.20;118.99
67358;HTU21D;54240;51.096;5.878;2022-11-20T10:12:04;6.21;118.99
67358;HTU21D;54240;51.096;5.878;2022-11-20T10:18:04;6.25;118.99
67358;HTU21D;54240;51.096;5.878;2022-11-20T10:26:35;6.16;118.99
67358;HTU21D;54240;51.096;5.878;2022-11-20T10:29:42;6.08;118.99
67358;HTU21D;54240;51.096;5.878;2022-11-20T10:32:06;6.02;118.99
67358;HTU21D;54240;51.096;5.878;2022-11-20T10:34:53;6.05;118.99
67358;HTU21D;54240;51.096;5.878;2022-11-20T10:37:26;6.13;118.99
67358;HTU21D;54240;51.096;5.878;2022-11-20T10:40:11;6.26;118.99
67358;HTU21D;54240;51.096;5.878;2022-11-20T10:42:47;6.30;118.99
67358;HTU21D;54240;51.096;5.878;2022-11-20T10:50:37;6.48;118.99
67358;HTU21D;54240;51.096;5.878;2022-11-20T10:53:31;6.52;118.99
67358;HTU21D;54240;51.096;5.878;2022-11-20T10:56:30;6.66;118.99
67358;HTU21D;54240;51.096;5.878;2022-11-20T10:59:19;6.70;118.99
67358;HTU21D;54240;51.096;5.878;2022-11-20T11:01:48;6.66;118.99
67358;HTU21D;54240;51.096;5.878;2022-11-20T11:04:33;6.60;118.99
67358;HTU21D;54240;51.096;5.878;2022-11-20T11:07:16;6.57;118.99
67358;HTU21D;54240;51.096;5.878;2022-11-20T11:09:48;6.61;118.99
67358;HTU21D;54240;51.096;5.878;2022-11-20T11:12:14;6.65;118.99
67358;HTU21D;54240;51.096;5.878;2022-11-20T11:14:46;6.66;118.99
67358;HTU21D;54240;51.096;5.878;2022-11-20T11:17:31;6.65;118.99
67358;HTU21D;54240;51.096;5.878;2022-11-20T11:20:18;6.58;118.99
67358;HTU21D;54240;51.096;5.878;2022-11-20T11:22:50;6.50;118.99
67358;HTU21D;54240;51.096;5.878;2022-11-20T11:27:49;6.54;118.99
67358;HTU21D;54240;51.096;5.878;2022-11-20T11:30:17;6.56;118.99
67358;HTU21D;54240;51.096;5.878;2022-11-20T11:32:44;6.67;118.99
67358;HTU21D;54240;51.096;5.878;2022-11-20T11:35:23;6.70;118.99
67358;HTU21D;54240;51.096;5.878;2022-11-20T11:37:51;6.71;118.99
67358;HTU21D;54240;51.096;5.878;2022-11-20T11:40:21;6.71;118.99
67358;HTU21D;54240;51.096;5.878;2022-11-20T11:42:57;6.74;118.99
67358;HTU21D;54240;51.096;5.878;2022-11-20T11:45:25;6.74;118.99
67358;HTU21D;54240;51.096;5.878;2022-11-20T11:47:53;6.69;118.99
67358;HTU21D;54240;51.096;5.878;2022-11-20T11:50:23;6.61;118.99
67358;HTU21D;54240;51.096;5.878;2022-11-20T11:53:13;6.64;118.99
67358;HTU21D;54240;51.096;5.878;2022-11-20T11:56:08;6.68;118.99
67358;HTU21D;54240;51.096;5.878;2022-11-20T11:58:50;6.72;118.99
67358;HTU21D;54240;51.096;5.878;2022-11-20T12:06:30;6.75;118.99
67358;HTU21D;54240;51.096;5.878;2022-11-20T12:09:04;6.84;118.99
67358;HTU21D;54240;51.096;5.878;2022-11-20T12:11:59;6.96;118.99
67358;HTU21D;54240;51.096;5.878;2022-11-20T12:14:35;7.07;118.99
67358;HTU21D;54240;51.096;5.878;2022-11-20T12:17:03;7.15;118.99
67358;HTU21D;54240;51.096;5.878;2022-11-20T12:19:33;7.18;118.99
67358;HTU21D;54240;51.096;5.878;2022-11-20T12:27:51;7.31;118.99
67358;HTU21D;54240;51.096;5.878;2022-11-20T12:30:22;7.38;118.99
67358;HTU21D;54240;51.096;5.878;2022-11-20T12:35:31;7.70;118.99
67358;HTU21D;54240;51.096;5.878;2022-11-20T12:41:32;8.11;118.99
67358;HTU21D;54240;51.096;5.878;2022-11-20T12:56:29;8.06;118.99
67358;HTU21D;54240;51.096;5.878;2022-11-20T12:59:21;7.97;118.99
67358;HTU21D;54240;51.096;5.878;2022-11-20T13:01:55;7.93;118.99
67358;HTU21D;54240;51.096;5.878;2022-11-20T13:07:06;8.03;118.99
67358;HTU21D;54240;51.096;5.878;2022-11-20T13:09:48;8.09;118.99
67358;HTU21D;54240;51.096;5.878;2022-11-20T13:12:38;8.16;118.99
67358;HTU21D;54240;51.096;5.878;2022-11-20T13:20:16;8.43;118.99
67358;HTU21D;54240;51.096;5.878;2022-11-20T13:22:46;8.41;118.99
67358;HTU21D;54240;51.096;5.878;2022-11-20T13:25:29;8.36;118.99
67358;HTU21D;54240;51.096;5.878;2022-11-20T13:27:58;8.30;118.99
67358;HTU21D;54240;51.096;5.878;2022-11-20T13:30:28;8.29;118.99
67358;HTU21D;54240;51.096;5.878;2022-11-20T13:35:41;8.21;118.99
67358;HTU21D;54240;51.096;5.878;2022-11-20T13:38:13;8.18;118.99
67358;HTU21D;54240;51.096;5.878;2022-11-20T13:40:54;8.14;118.99
67358;HTU21D;54240;51.096;5.878;2022-11-20T13:48:34;8.18;118.99
67358;HTU21D;54240;51.096;5.878;2022-11-20T14:00:18;8.00;118.99
67358;HTU21D;54240;51.096;5.878;2022-11-20T14:05:39;7.88;118.99
67358;HTU21D;54240;51.096;5.878;2022-11-20T14:08:14;7.75;118.99
67358;HTU21D;54240;51.096;5.878;2022-11-20T14:10:45;7.64;118.99
67358;HTU21D;54240;51.096;5.878;2022-11-20T14:13:18;7.58;118.99
67358;HTU21D;54240;51.096;5.878;2022-11-20T14:15:44;7.54;118.99
67358;HTU21D;54240;51.096;5.878;2022-11-20T14:18:20;7.49;118.99
67358;HTU21D;54240;51.096;5.878;2022-11-20T14:20:49;7.44;118.99
67358;HTU21D;54240;51.096;5.878;2022-11-20T14:23:25;7.37;118.99
67358;HTU21D;54240;51.096;5.878;2022-11-20T14:25:51;7.23;118.99
67358;HTU21D;54240;51.096;5.878;2022-11-20T14:28:28;7.29;118.99
67358;HTU21D;54240;51.096;5.878;2022-11-20T14:30:55;7.18;118.99
67358;HTU21D;54240;51.096;5.878;2022-11-20T14:33:25;7.23;118.99
67358;HTU21D;54240;51.096;5.878;2022-11-20T14:35:53;7.13;118.99
67358;HTU21D;54240;51.096;5.878;2022-11-20T14:38:25;7.16;118.99
67358;HTU21D;54240;51.096;5.878;2022-11-20T14:40:52;7.15;118.99
67358;HTU21D;54240;51.096;5.878;2022-11-20T14:43:22;7.15;118.99
67358;HTU21D;54240;51.096;5.878;2022-11-20T14:45:56;7.16;118.99
67358;HTU21D;54240;51.096;5.878;2022-11-20T14:48:29;7.24;118.99
67358;HTU21D;54240;51.096;5.878;2022-11-20T14:50:57;7.29;118.99
67358;HTU21D;54240;51.096;5.878;2022-11-20T14:53:24;7.31;118.99
67358;HTU21D;54240;51.096;5.878;2022-11-20T14:56:00;7.32;118.99
67358;HTU21D;54240;51.096;5.878;2022-11-20T14:58:28;7.31;118.99
67358;HTU21D;54240;51.096;5.878;2022-11-20T15:01:06;7.28;118.99
67358;HTU21D;54240;51.096;5.878;2022-11-20T15:03:38;7.25;118.99
67358;HTU21D;54240;51.096;5.878;2022-11-20T15:06:06;7.22;118.99
67358;HTU21D;54240;51.096;5.878;2022-11-20T15:08:33;7.14;118.99
67358;HTU21D;54240;51.096;5.878;2022-11-20T15:10:59;7.13;118.99
67358;HTU21D;54240;51.096;5.878;2022-11-20T15:13:26;7.17;118.99
67358;HTU21D;54240;51.096;5.878;2022-11-20T15:15:55;7.11;118.99
67358;HTU21D;54240;51.096;5.878;2022-11-20T15:18:28;7.13;118.99
67358;HTU21D;54240;51.096;5.878;2022-11-20T15:20:56;7.13;118.99
67358;HTU21D;54240;51.096;5.878;2022-11-20T15:23:23;7.03;118.99
67358;HTU21D;54240;51.096;5.878;2022-11-20T15:25:49;7.00;118.99
67358;HTU21D;54240;51.096;5.878;2022-11-20T15:28:37;7.00;118.99
67358;HTU21D;54240;51.096;5.878;2022-11-20T15:31:05;6.98;118.99
67358;HTU21D;54240;51.096;5.878;2022-11-20T15:33:32;7.01;118.99
67358;HTU21D;54240;51.096;5.878;2022-11-20T15:35:59;6.95;118.99
67358;HTU21D;54240;51.096;5.878;2022-11-20T15:38:25;6.94;118.99
67358;HTU21D;54240;51.096;5.878;2022-11-20T15:40:51;6.94;118.99
67358;HTU21D;54240;51.096;5.878;2022-11-20T15:43:17;6.88;118.99
67358;HTU21D;54240;51.096;5.878;2022-11-20T15:46:28;6.90;118.99
67358;HTU21D;54240;51.096;5.878;2022-11-20T15:48:39;6.96;118.99
67358;HTU21D;54240;51.096;5.878;2022-11-20T15:53:38;6.90;118.99
67358;HTU21D;54240;51.096;5.878;2022-11-20T15:56:04;6.93;118.99
67358;HTU21D;54240;51.096;5.878;2022-11-20T15:58:30;6.76;118.99
67358;HTU21D;54240;51.096;5.878;2022-11-20T16:00:56;6.84;118.99
67358;HTU21D;54240;51.096;5.878;2022-11-20T16:03:23;6.85;118.99
67358;HTU21D;54240;51.096;5.878;2022-11-20T16:05:49;6.85;118.99
67358;HTU21D;54240;51.096;5.878;2022-11-20T16:08:15;6.94;118.99
67358;HTU21D;54240;51.096;5.878;2022-11-20T16:10:41;6.95;118.99
67358;HTU21D;54240;51.096;5.878;2022-11-20T16:13:16;6.89;118.99
67358;HTU21D;54240;51.096;5.878;2022-11-20T16:16:07;6.86;118.99
67358;HTU21D;54240;51.096;5.878;2022-11-20T16:18:37;6.78;118.99
67358;HTU21D;54240;51.096;5.878;2022-11-20T16:21:03;6.93;118.99
67358;HTU21D;54240;51.096;5.878;2022-11-20T16:23:28;6.90;118.99
67358;HTU21D;54240;51.096;5.878;2022-11-20T16:25:54;6.88;118.99
67358;HTU21D;54240;51.096;5.878;2022-11-20T16:28:20;6.97;118.99
67358;HTU21D;54240;51.096;5.878;2022-11-20T16:30:46;6.93;118.99
67358;HTU21D;54240;51.096;5.878;2022-11-20T16:33:15;6.84;118.99
67358;HTU21D;54240;51.096;5.878;2022-11-20T16:35:43;6.95;118.99
67358;HTU21D;54240;51.096;5.878;2022-11-20T16:38:09;7.07;118.99
67358;HTU21D;54240;51.096;5.878;2022-11-20T16:40:35;7.05;118.99
67358;HTU21D;54240;51.096;5.878;2022-11-20T16:43:08;7.08;118.99
67358;HTU21D;54240;51.096;5.878;2022-11-20T16:45:40;7.13;118.99
67358;HTU21D;54240;51.096;5.878;2022-11-20T16:48:05;7.01;118.99
67358;HTU21D;54240;51.096;5.878;2022-11-20T16:50:31;7.03;118.99
67358;HTU21D;54240;51.096;5.878;2022-11-20T16:52:57;6.98;118.99
67358;HTU21D;54240;51.096;5.878;2022-11-20T16:55:23;7.00;118.99
67358;HTU21D;54240;51.096;5.878;2022-11-20T16:57:48;7.10;118.99
67358;HTU21D;54240;51.096;5.878;2022-11-20T17:00:14;7.15;118.99
67358;HTU21D;54240;51.096;5.878;2022-11-20T17:02:40;7.04;118.99
67358;HTU21D;54240;51.096;5.878;2022-11-20T17:05:06;7.14;118.99
67358;HTU21D;54240;51.096;5.878;2022-11-20T17:07:32;7.16;118.99